createdAt,value
2022-08-07T00:03:47.049Z,1010.06
2022-08-07T00:09:36.259Z,1010.11
2022-08-07T00:15:20.043Z,1010.02
2022-08-07T00:21:55.724Z,1009.96
2022-08-07T00:27:23.519Z,1009.94
2022-08-07T00:33:20.940Z,1009.85
2022-08-07T00:39:05.384Z,1009.85
2022-08-07T00:44:59.775Z,1009.84
2022-08-07T00:50:52.499Z,1009.85
2022-08-07T00:56:37.548Z,1009.8
2022-08-07T01:02:28.192Z,1009.7
2022-08-07T01:08:12.647Z,1009.59
2022-08-07T01:13:56.958Z,1009.57
2022-08-07T01:19:52.447Z,1009.68
2022-08-07T01:25:54.997Z,1009.6
2022-08-07T01:31:48.149Z,1009.56
2022-08-07T01:37:34.834Z,1009.63
2022-08-07T01:43:21.947Z,1009.59
2022-08-07T01:49:23.135Z,1009.61
2022-08-07T01:55:22.098Z,1009.58
2022-08-07T02:01:25.810Z,1009.53
2022-08-07T02:07:15.885Z,1009.47
2022-08-07T02:13:02.014Z,1009.43
2022-08-07T02:18:52.042Z,1009.42
2022-08-07T02:24:36.858Z,1009.42
2022-08-07T02:30:27.055Z,1009.33
2022-08-07T02:36:27.596Z,1009.36
2022-08-07T02:42:17.107Z,1009.31
2022-08-07T02:48:02.926Z,1009.22
2022-08-07T02:53:58.626Z,1009.24
2022-08-07T02:59:54.728Z,1009.27
2022-08-07T03:05:50.194Z,1009.21
2022-08-07T03:11:51.580Z,1009.25
2022-08-07T03:17:53.195Z,1009.26
2022-08-07T03:24:17.665Z,1009.21
2022-08-07T03:29:51.175Z,1009.27
2022-08-07T03:35:44.128Z,1009.18
2022-08-07T03:41:41.897Z,1009.22
2022-08-07T03:47:45.222Z,1009.18
2022-08-07T03:53:50.332Z,1009.18
2022-08-07T03:59:46.466Z,1009.23
2022-08-07T04:05:45.528Z,1009.17
2022-08-07T04:12:20.973Z,1009.21
2022-08-07T04:18:31.454Z,1009.24
2022-08-07T04:24:03.898Z,1009.24
2022-08-07T04:29:58.707Z,1009.24
2022-08-07T04:35:53.238Z,1009.2
2022-08-07T04:41:43.007Z,1009.24
2022-08-07T04:47:57.525Z,1009.22
2022-08-07T04:54:02.216Z,1009.25
2022-08-07T05:00:08.285Z,1009.34
2022-08-07T05:06:01.220Z,1009.4
2022-08-07T05:12:05.606Z,1009.52
2022-08-07T05:17:56.235Z,1009.51
2022-08-07T05:23:46.405Z,1009.61
2022-08-07T05:29:38.946Z,1009.6
2022-08-07T05:35:41.650Z,1009.62
2022-08-07T05:41:46.807Z,1009.67
2022-08-07T05:47:37.951Z,1009.64
2022-08-07T05:54:08.968Z,1009.64
2022-08-07T05:59:55.686Z,1009.69
2022-08-07T06:05:48.958Z,1009.74
2022-08-07T06:11:38.787Z,1009.75
2022-08-07T06:17:30.482Z,1009.81
2022-08-07T06:23:47.062Z,1009.88
2022-08-07T06:29:30.925Z,1009.8
2022-08-07T06:35:18.986Z,1009.81
2022-08-07T06:41:29.348Z,1009.77
2022-08-07T06:47:22.302Z,1009.77
2022-08-07T06:54:12.383Z,1009.75
2022-08-07T07:00:10.738Z,1009.72
2022-08-07T07:06:02.292Z,1009.73
2022-08-07T07:12:07.074Z,1009.78
2022-08-07T07:17:39.438Z,1009.77
2022-08-07T07:24:06.753Z,1009.76
2022-08-07T07:29:57.385Z,1009.74
2022-08-07T07:35:54.816Z,1009.75
2022-08-07T07:42:08.514Z,1009.73
2022-08-07T07:47:56.370Z,1009.78
2022-08-07T07:53:51.632Z,1009.7
2022-08-07T07:59:51.922Z,1009.58
2022-08-07T08:05:54.660Z,1009.58
2022-08-07T08:11:47.577Z,1009.61
2022-08-07T08:17:56.794Z,1009.52
2022-08-07T08:23:47.183Z,1009.47
2022-08-07T08:29:45.280Z,1009.43
2022-08-07T08:35:47.154Z,1009.44
2022-08-07T08:41:58.203Z,1009.35
2022-08-07T08:47:53.010Z,1009.32
2022-08-07T08:53:45.840Z,1009.24
2022-08-07T08:59:41.707Z,1009.21
2022-08-07T09:05:38.728Z,1009.18
2022-08-07T09:11:43.200Z,1009.12
2022-08-07T09:17:58.857Z,1009.17
2022-08-07T09:24:30.216Z,1009.15
2022-08-07T09:30:08.142Z,1009.24
2022-08-07T09:36:00.817Z,1009.21
2022-08-07T09:42:04.166Z,1009.21
2022-08-07T09:48:03.922Z,1009.13
2022-08-07T09:54:03.811Z,1009.08
2022-08-07T10:00:02.036Z,1009.04
2022-08-07T10:06:03.622Z,1008.93
2022-08-07T10:12:18.303Z,1008.88
2022-08-07T10:18:20.645Z,1008.84
2022-08-07T10:24:22.765Z,1008.76
2022-08-07T10:30:13.924Z,1008.79
2022-08-07T10:36:11.193Z,1008.75
2022-08-07T10:42:21.147Z,1008.72
2022-08-07T10:48:15.399Z,1008.55
2022-08-07T10:54:05.526Z,1008.54
2022-08-07T10:59:58.961Z,1008.45
2022-08-07T11:05:52.163Z,1008.44
2022-08-07T11:11:43.859Z,1008.37
2022-08-07T11:17:46.852Z,1008.27
2022-08-07T11:23:39.781Z,1008.25
2022-08-07T11:29:41.624Z,1008.22
2022-08-07T11:35:59.258Z,1008.16
2022-08-07T11:42:00.047Z,1008.17
2022-08-07T11:47:59.332Z,1008.02
2022-08-07T11:54:04.387Z,1008.02
2022-08-07T12:00:18.349Z,1007.95
2022-08-07T12:06:36.582Z,1007.92
2022-08-07T12:12:25.824Z,1007.88
2022-08-07T12:18:22.126Z,1007.75
2022-08-07T12:24:37.177Z,1007.82
2022-08-07T12:30:24.544Z,1007.8
2022-08-07T12:36:11.964Z,1007.76
2022-08-07T12:41:59.494Z,1007.8
2022-08-07T12:47:56.212Z,1007.65
2022-08-07T12:54:03.547Z,1007.61
2022-08-07T12:59:55.105Z,1007.55
2022-08-07T13:06:02.450Z,1007.54
2022-08-07T13:12:09.856Z,1007.48
2022-08-07T13:18:02.575Z,1007.48
2022-08-07T13:24:00.322Z,1007.47
2022-08-07T13:29:50.760Z,1007.3
2022-08-07T13:36:00.144Z,1007.33
2022-08-07T13:41:48.578Z,1007.33
2022-08-07T13:48:06.689Z,1007.27
2022-08-07T13:53:55.478Z,1007.19
2022-08-07T13:59:46.550Z,1007.29
2022-08-07T14:05:39.445Z,1007.21
2022-08-07T14:11:53.125Z,1007.1
2022-08-07T14:18:12.215Z,1007.02
2022-08-07T14:23:59.813Z,1007.01
2022-08-07T14:30:03.136Z,1006.95
2022-08-07T14:35:56.502Z,1006.91
2022-08-07T14:42:15.250Z,1006.83
2022-08-07T14:47:49.719Z,1006.77
2022-08-07T14:53:49.890Z,1006.81
2022-08-07T15:00:03.829Z,1006.81
2022-08-07T15:05:54.449Z,1006.74
2022-08-07T15:17:56.708Z,1006.75
2022-08-07T15:30:03.835Z,1006.75
2022-08-07T15:42:45.553Z,1006.66
2022-08-07T15:48:13.777Z,1006.63
2022-08-07T15:54:13.235Z,1006.5
2022-08-07T16:00:04.069Z,1006.52
2022-08-07T16:05:52.755Z,1006.52
2022-08-07T16:11:46.539Z,1006.44
2022-08-07T16:18:00.665Z,1006.45
2022-08-07T16:24:02.750Z,1006.52
2022-08-07T16:30:29.978Z,1006.42
2022-08-07T16:36:20.861Z,1006.48
2022-08-07T16:42:26.466Z,1006.43
2022-08-07T16:48:53.537Z,1006.37
2022-08-07T16:54:54.388Z,1006.5
2022-08-07T17:00:41.179Z,1006.43
2022-08-07T17:06:42.806Z,1006.39
2022-08-07T17:12:45.392Z,1006.42
2022-08-07T17:18:37.884Z,1006.4
2022-08-07T17:24:43.847Z,1006.4
2022-08-07T17:30:48.947Z,1006.33
2022-08-07T17:36:49.134Z,1006.35
2022-08-07T17:42:58.777Z,1006.34
2022-08-07T17:48:51.683Z,1006.34
2022-08-07T17:54:53.418Z,1006.37
2022-08-07T18:00:48.363Z,1006.36
2022-08-07T18:06:42.945Z,1006.42
2022-08-07T18:12:40.171Z,1006.4
2022-08-07T18:18:39.962Z,1006.38
2022-08-07T18:24:36.409Z,1006.41
2022-08-07T18:30:36.724Z,1006.48
2022-08-07T18:36:33.891Z,1006.59
2022-08-07T18:42:27.554Z,1006.67
2022-08-07T18:49:03.755Z,1006.71
2022-08-07T18:54:32.421Z,1006.72
2022-08-07T19:00:33.589Z,1006.75
2022-08-07T19:06:21.547Z,1006.81
2022-08-07T19:12:19.976Z,1006.94
2022-08-07T19:18:13.660Z,1006.98
2022-08-07T19:24:07.754Z,1007.02
2022-08-07T19:30:59.366Z,1007.09
2022-08-07T19:35:58.401Z,1007.2
2022-08-07T19:42:06.103Z,1007.24
2022-08-07T19:47:56.038Z,1007.31
2022-08-07T19:54:30.086Z,1007.35
2022-08-07T19:59:51.314Z,1007.39
2022-08-07T20:06:00.218Z,1007.37
2022-08-07T20:12:01.167Z,1007.4
2022-08-07T20:17:56.401Z,1007.42
2022-08-07T20:23:54.877Z,1007.43
2022-08-07T20:29:58.191Z,1007.41
2022-08-07T20:35:52.053Z,1007.43
2022-08-07T20:41:49.114Z,1007.45
2022-08-07T20:47:55.226Z,1007.5
2022-08-07T20:54:02.613Z,1007.59
2022-08-07T21:00:05.716Z,1007.53
2022-08-07T21:05:56.255Z,1007.56
2022-08-07T21:11:50.611Z,1007.56
2022-08-07T21:18:04.126Z,1007.56
2022-08-07T21:23:50.803Z,1007.64
2022-08-07T21:29:39.939Z,1007.62
2022-08-07T21:36:04.641Z,1007.56
2022-08-07T21:41:52.480Z,1007.59
2022-08-07T21:47:51.106Z,1007.7
2022-08-07T21:53:46.324Z,1007.78
2022-08-07T22:00:03.342Z,1007.79
2022-08-07T22:05:50.621Z,1007.84
2022-08-07T22:11:53.151Z,1007.86
2022-08-07T22:17:51.437Z,1007.95
2022-08-07T22:23:45.859Z,1007.97
2022-08-07T22:29:37.950Z,1008.03
2022-08-07T22:35:41.047Z,1008.1
2022-08-07T22:42:04.264Z,1008.1
2022-08-07T22:47:55.757Z,1008.18
2022-08-07T22:54:05.917Z,1008.17
2022-08-07T22:59:59.290Z,1008.19
2022-08-07T23:06:10.428Z,1008.2
2022-08-07T23:12:04.931Z,1008.12
2022-08-07T23:17:59.994Z,1008.15
2022-08-07T23:24:04.669Z,1008.16
2022-08-07T23:30:36.812Z,1008.14
2022-08-07T23:36:28.927Z,1008.13
2022-08-07T23:42:24.268Z,1008
2022-08-07T23:48:26.122Z,1007.96
2022-08-07T23:54:36.356Z,1007.92
